sensor_id;sensor_type;location;lat;lon;timestamp;temperature;humidity
18105;DHT22;9179;50.968;3.134;2023-03-23T00:01:46;14.40;99.90
18105;DHT22;9179;50.968;3.134;2023-03-23T00:04:15;14.30;99.90
18105;DHT22;9179;50.968;3.134;2023-03-23T00:06:44;14.20;99.90
18105;DHT22;9179;50.968;3.134;2023-03-23T00:09:12;14.20;99.90
18105;DHT22;9179;50.968;3.134;2023-03-23T00:11:41;14.00;99.90
18105;DHT22;9179;50.968;3.134;2023-03-23T00:14:09;13.90;99.90
18105;DHT22;9179;50.968;3.134;2023-03-23T00:16:39;13.90;99.90
18105;DHT22;9179;50.968;3.134;2023-03-23T00:19:08;13.90;99.90
18105;DHT22;9179;50.968;3.134;2023-03-23T00:21:37;13.80;99.90
18105;DHT22;9179;50.968;3.134;2023-03-23T00:24:07;13.80;99.90
18105;DHT22;9179;50.968;3.134;2023-03-23T00:26:36;13.70;99.90
18105;DHT22;9179;50.968;3.134;2023-03-23T00:29:07;13.70;99.90
18105;DHT22;9179;50.968;3.134;2023-03-23T00:31:34;13.80;99.90
18105;DHT22;9179;50.968;3.134;2023-03-23T00:34:03;13.80;99.90
18105;DHT22;9179;50.968;3.134;2023-03-23T00:36:31;13.90;99.90
18105;DHT22;9179;50.968;3.134;2023-03-23T00:39:00;13.90;99.90
18105;DHT22;9179;50.968;3.134;2023-03-23T00:41:29;13.90;99.90
18105;DHT22;9179;50.968;3.134;2023-03-23T00:43:57;13.90;99.90
18105;DHT22;9179;50.968;3.134;2023-03-23T00:46:26;14.00;99.90
18105;DHT22;9179;50.968;3.134;2023-03-23T00:48:53;14.00;99.90
18105;DHT22;9179;50.968;3.134;2023-03-23T00:51:20;14.10;99.90
18105;DHT22;9179;50.968;3.134;2023-03-23T00:53:47;14.10;99.90
18105;DHT22;9179;50.968;3.134;2023-03-23T00:56:14;14.10;99.90
18105;DHT22;9179;50.968;3.134;2023-03-23T00:58:43;14.10;99.90
18105;DHT22;9179;50.968;3.134;2023-03-23T01:01:10;14.10;99.90
18105;DHT22;9179;50.968;3.134;2023-03-23T01:03:37;14.10;99.90
18105;DHT22;9179;50.968;3.134;2023-03-23T01:06:06;14.10;99.90
18105;DHT22;9179;50.968;3.134;2023-03-23T01:08:34;14.10;99.90
18105;DHT22;9179;50.968;3.134;2023-03-23T01:11:05;14.10;99.90
18105;DHT22;9179;50.968;3.134;2023-03-23T01:13:33;14.10;99.90
18105;DHT22;9179;50.968;3.134;2023-03-23T01:16:02;14.10;99.90
18105;DHT22;9179;50.968;3.134;2023-03-23T01:18:29;14.10;99.90
18105;DHT22;9179;50.968;3.134;2023-03-23T01:20:56;14.10;99.90
18105;DHT22;9179;50.968;3.134;2023-03-23T01:23:23;14.10;99.90
18105;DHT22;9179;50.968;3.134;2023-03-23T01:25:50;14.00;99.90
18105;DHT22;9179;50.968;3.134;2023-03-23T01:28:20;14.00;99.90
18105;DHT22;9179;50.968;3.134;2023-03-23T01:30:46;14.00;99.90
18105;DHT22;9179;50.968;3.134;2023-03-23T01:33:15;14.00;99.90
18105;DHT22;9179;50.968;3.134;2023-03-23T01:35:42;14.00;99.90
18105;DHT22;9179;50.968;3.134;2023-03-23T01:38:09;14.10;99.90
18105;DHT22;9179;50.968;3.134;2023-03-23T01:40:35;14.20;99.90
18105;DHT22;9179;50.968;3.134;2023-03-23T01:43:02;14.20;99.90
18105;DHT22;9179;50.968;3.134;2023-03-23T01:45:32;14.20;99.90
18105;DHT22;9179;50.968;3.134;2023-03-23T01:48:11;14.20;99.90
18105;DHT22;9179;50.968;3.134;2023-03-23T01:50:46;14.20;99.90
18105;DHT22;9179;50.968;3.134;2023-03-23T01:53:14;14.30;99.90
18105;DHT22;9179;50.968;3.134;2023-03-23T01:55:43;14.30;99.90
18105;DHT22;9179;50.968;3.134;2023-03-23T01:58:15;14.30;99.90
18105;DHT22;9179;50.968;3.134;2023-03-23T02:00:44;14.40;99.90
18105;DHT22;9179;50.968;3.134;2023-03-23T02:03:12;14.40;99.90
18105;DHT22;9179;50.968;3.134;2023-03-23T02:05:43;14.40;99.90
18105;DHT22;9179;50.968;3.134;2023-03-23T02:08:11;14.40;99.90
18105;DHT22;9179;50.968;3.134;2023-03-23T02:10:39;14.40;99.90
18105;DHT22;9179;50.968;3.134;2023-03-23T02:13:08;14.50;99.90
18105;DHT22;9179;50.968;3.134;2023-03-23T02:15:43;14.50;99.90
18105;DHT22;9179;50.968;3.134;2023-03-23T02:18:19;14.50;99.90
18105;DHT22;9179;50.968;3.134;2023-03-23T02:21:25;14.50;99.90
18105;DHT22;9179;50.968;3.134;2023-03-23T02:27:03;14.50;99.90
18105;DHT22;9179;50.968;3.134;2023-03-23T02:29:47;14.40;99.90
18105;DHT22;9179;50.968;3.134;2023-03-23T02:32:34;14.40;99.90
18105;DHT22;9179;50.968;3.134;2023-03-23T02:35:08;14.50;99.90
18105;DHT22;9179;50.968;3.134;2023-03-23T02:37:40;14.50;99.90
18105;DHT22;9179;50.968;3.134;2023-03-23T02:40:15;14.50;99.90
18105;DHT22;9179;50.968;3.134;2023-03-23T02:42:48;14.50;99.90
18105;DHT22;9179;50.968;3.134;2023-03-23T02:45:17;14.50;99.90
18105;DHT22;9179;50.968;3.134;2023-03-23T02:47:48;14.40;99.90
18105;DHT22;9179;50.968;3.134;2023-03-23T02:50:19;14.40;99.90
18105;DHT22;9179;50.968;3.134;2023-03-23T02:52:48;14.40;99.90
18105;DHT22;9179;50.968;3.134;2023-03-23T02:55:18;14.40;99.90
18105;DHT22;9179;50.968;3.134;2023-03-23T02:57:46;14.40;99.90
18105;DHT22;9179;50.968;3.134;2023-03-23T03:00:16;14.30;99.90
18105;DHT22;9179;50.968;3.134;2023-03-23T03:02:46;14.20;99.90
18105;DHT22;9179;50.968;3.134;2023-03-23T03:05:28;14.20;99.90
18105;DHT22;9179;50.968;3.134;2023-03-23T03:08:08;14.00;99.90
18105;DHT22;9179;50.968;3.134;2023-03-23T03:10:43;13.90;99.90
18105;DHT22;9179;50.968;3.134;2023-03-23T03:13:20;13.90;99.90
18105;DHT22;9179;50.968;3.134;2023-03-23T03:15:53;13.90;99.90
18105;DHT22;9179;50.968;3.134;2023-03-23T03:18:25;14.00;99.90
18105;DHT22;9179;50.968;3.134;2023-03-23T03:20:59;14.10;99.90
18105;DHT22;9179;50.968;3.134;2023-03-23T03:23:27;14.10;99.90
18105;DHT22;9179;50.968;3.134;2023-03-23T03:25:56;14.10;99.90
18105;DHT22;9179;50.968;3.134;2023-03-23T03:28:25;14.10;99.90
18105;DHT22;9179;50.968;3.134;2023-03-23T03:30:55;14.20;99.90
18105;DHT22;9179;50.968;3.134;2023-03-23T03:33:23;14.20;99.90
18105;DHT22;9179;50.968;3.134;2023-03-23T03:35:53;14.10;99.90
18105;DHT22;9179;50.968;3.134;2023-03-23T03:38:21;14.10;99.90
18105;DHT22;9179;50.968;3.134;2023-03-23T03:40:48;14.10;99.90
18105;DHT22;9179;50.968;3.134;2023-03-23T03:43:15;14.10;99.90
18105;DHT22;9179;50.968;3.134;2023-03-23T03:45:43;14.10;99.90
18105;DHT22;9179;50.968;3.134;2023-03-23T03:48:10;14.10;99.90
18105;DHT22;9179;50.968;3.134;2023-03-23T03:50:37;14.20;99.90
18105;DHT22;9179;50.968;3.134;2023-03-23T03:53:06;14.20;99.90
18105;DHT22;9179;50.968;3.134;2023-03-23T03:55:33;14.10;99.90
18105;DHT22;9179;50.968;3.134;2023-03-23T03:58:01;14.10;99.90
18105;DHT22;9179;50.968;3.134;2023-03-23T04:00:30;14.10;99.90
18105;DHT22;9179;50.968;3.134;2023-03-23T04:02:57;14.20;99.90
18105;DHT22;9179;50.968;3.134;2023-03-23T04:05:25;13.90;99.90
18105;DHT22;9179;50.968;3.134;2023-03-23T04:07:55;13.50;99.90
18105;DHT22;9179;50.968;3.134;2023-03-23T04:10:30;13.10;99.90
18105;DHT22;9179;50.968;3.134;2023-03-23T04:12:57;12.90;99.90
18105;DHT22;9179;50.968;3.134;2023-03-23T04:15:25;12.80;99.90
18105;DHT22;9179;50.968;3.134;2023-03-23T04:17:52;12.70;99.90
18105;DHT22;9179;50.968;3.134;2023-03-23T04:20:22;12.60;99.90
18105;DHT22;9179;50.968;3.134;2023-03-23T04:22:49;12.70;99.90
18105;DHT22;9179;50.968;3.134;2023-03-23T04:25:19;12.70;99.90
18105;DHT22;9179;50.968;3.134;2023-03-23T04:27:49;12.70;99.90
18105;DHT22;9179;50.968;3.134;2023-03-23T04:30:19;12.80;99.90
18105;DHT22;9179;50.968;3.134;2023-03-23T04:32:46;12.80;99.90
18105;DHT22;9179;50.968;3.134;2023-03-23T04:35:16;12.90;99.90
18105;DHT22;9179;50.968;3.134;2023-03-23T04:37:44;13.00;99.90
18105;DHT22;9179;50.968;3.134;2023-03-23T04:40:12;12.80;99.90
18105;DHT22;9179;50.968;3.134;2023-03-23T04:42:41;12.60;99.90
18105;DHT22;9179;50.968;3.134;2023-03-23T04:45:14;12.50;99.90
18105;DHT22;9179;50.968;3.134;2023-03-23T04:47:42;12.50;99.90
18105;DHT22;9179;50.968;3.134;2023-03-23T04:50:19;12.50;99.90
18105;DHT22;9179;50.968;3.134;2023-03-23T04:52:49;12.40;99.90
18105;DHT22;9179;50.968;3.134;2023-03-23T04:55:17;12.40;99.90
18105;DHT22;9179;50.968;3.134;2023-03-23T04:57:45;12.40;99.90
18105;DHT22;9179;50.968;3.134;2023-03-23T05:00:15;12.40;99.90
18105;DHT22;9179;50.968;3.134;2023-03-23T05:02:43;12.30;99.90
18105;DHT22;9179;50.968;3.134;2023-03-23T05:05:11;12.30;99.90
18105;DHT22;9179;50.968;3.134;2023-03-23T05:07:39;12.30;99.90
18105;DHT22;9179;50.968;3.134;2023-03-23T05:10:08;12.30;99.90
18105;DHT22;9179;50.968;3.134;2023-03-23T05:12:35;12.20;99.90
18105;DHT22;9179;50.968;3.134;2023-03-23T05:15:04;12.10;99.90
18105;DHT22;9179;50.968;3.134;2023-03-23T05:17:32;12.00;99.90
18105;DHT22;9179;50.968;3.134;2023-03-23T05:20:00;12.00;99.90
18105;DHT22;9179;50.968;3.134;2023-03-23T05:22:31;11.90;99.90
18105;DHT22;9179;50.968;3.134;2023-03-23T05:24:58;11.80;99.90
18105;DHT22;9179;50.968;3.134;2023-03-23T05:27:28;11.90;99.90
18105;DHT22;9179;50.968;3.134;2023-03-23T05:29:56;11.90;99.90
18105;DHT22;9179;50.968;3.134;2023-03-23T05:32:23;11.90;99.90
18105;DHT22;9179;50.968;3.134;2023-03-23T05:34:56;11.90;99.90
18105;DHT22;9179;50.968;3.134;2023-03-23T05:37:24;11.90;99.90
18105;DHT22;9179;50.968;3.134;2023-03-23T05:39:52;12.00;99.90
18105;DHT22;9179;50.968;3.134;2023-03-23T05:42:21;12.00;99.90
18105;DHT22;9179;50.968;3.134;2023-03-23T05:44:48;12.00;99.90
18105;DHT22;9179;50.968;3.134;2023-03-23T05:47:15;11.90;99.90
18105;DHT22;9179;50.968;3.134;2023-03-23T05:49:42;11.80;99.90
18105;DHT22;9179;50.968;3.134;2023-03-23T05:52:11;11.80;99.90
18105;DHT22;9179;50.968;3.134;2023-03-23T05:54:38;11.70;99.90
18105;DHT22;9179;50.968;3.134;2023-03-23T05:57:04;11.80;99.90
18105;DHT22;9179;50.968;3.134;2023-03-23T05:59:32;11.80;99.90
18105;DHT22;9179;50.968;3.134;2023-03-23T06:01:59;11.80;99.90
18105;DHT22;9179;50.968;3.134;2023-03-23T06:04:27;11.90;99.90
18105;DHT22;9179;50.968;3.134;2023-03-23T06:06:54;11.90;99.90
18105;DHT22;9179;50.968;3.134;2023-03-23T06:09:22;12.00;99.90
18105;DHT22;9179;50.968;3.134;2023-03-23T06:11:50;12.00;99.90
18105;DHT22;9179;50.968;3.134;2023-03-23T06:14:17;12.00;99.90
18105;DHT22;9179;50.968;3.134;2023-03-23T06:16:44;12.00;99.90
18105;DHT22;9179;50.968;3.134;2023-03-23T06:19:11;11.90;99.90
18105;DHT22;9179;50.968;3.134;2023-03-23T06:21:38;11.90;99.90
18105;DHT22;9179;50.968;3.134;2023-03-23T06:24:05;11.90;99.90
18105;DHT22;9179;50.968;3.134;2023-03-23T06:26:35;12.00;99.90
18105;DHT22;9179;50.968;3.134;2023-03-23T06:29:03;11.90;99.90
18105;DHT22;9179;50.968;3.134;2023-03-23T06:31:38;11.90;99.90
18105;DHT22;9179;50.968;3.134;2023-03-23T06:34:07;12.00;99.90
18105;DHT22;9179;50.968;3.134;2023-03-23T06:36:35;12.10;99.90
18105;DHT22;9179;50.968;3.134;2023-03-23T06:39:03;12.10;99.90
18105;DHT22;9179;50.968;3.134;2023-03-23T06:41:31;12.10;99.90
18105;DHT22;9179;50.968;3.134;2023-03-23T06:44:00;12.10;99.90
18105;DHT22;9179;50.968;3.134;2023-03-23T06:46:27;12.10;99.90
18105;DHT22;9179;50.968;3.134;2023-03-23T06:48:54;12.10;99.90
18105;DHT22;9179;50.968;3.134;2023-03-23T06:51:22;12.20;99.90
18105;DHT22;9179;50.968;3.134;2023-03-23T06:53:49;12.20;99.90
18105;DHT22;9179;50.968;3.134;2023-03-23T06:56:16;12.20;99.90
18105;DHT22;9179;50.968;3.134;2023-03-23T06:58:43;12.30;99.90
18105;DHT22;9179;50.968;3.134;2023-03-23T07:01:12;12.30;99.90
18105;DHT22;9179;50.968;3.134;2023-03-23T07:03:40;12.30;99.90
18105;DHT22;9179;50.968;3.134;2023-03-23T07:06:08;12.40;99.90
18105;DHT22;9179;50.968;3.134;2023-03-23T07:08:36;12.50;99.90
18105;DHT22;9179;50.968;3.134;2023-03-23T07:11:03;12.50;99.90
18105;DHT22;9179;50.968;3.134;2023-03-23T07:13:31;12.50;99.90
18105;DHT22;9179;50.968;3.134;2023-03-23T07:15:58;12.30;99.90
18105;DHT22;9179;50.968;3.134;2023-03-23T07:18:27;12.20;99.90
18105;DHT22;9179;50.968;3.134;2023-03-23T07:20:54;12.20;99.90
18105;DHT22;9179;50.968;3.134;2023-03-23T07:23:21;12.50;99.90
18105;DHT22;9179;50.968;3.134;2023-03-23T07:25:48;14.00;99.90
18105;DHT22;9179;50.968;3.134;2023-03-23T07:28:15;15.40;99.90
18105;DHT22;9179;50.968;3.134;2023-03-23T07:30:42;16.50;99.90
18105;DHT22;9179;50.968;3.134;2023-03-23T07:33:10;17.20;99.90
18105;DHT22;9179;50.968;3.134;2023-03-23T07:35:39;17.70;99.90
18105;DHT22;9179;50.968;3.134;2023-03-23T07:38:06;17.60;99.90
18105;DHT22;9179;50.968;3.134;2023-03-23T07:40:34;17.20;99.90
18105;DHT22;9179;50.968;3.134;2023-03-23T07:43:02;17.00;99.90
18105;DHT22;9179;50.968;3.134;2023-03-23T07:45:30;17.60;99.90
18105;DHT22;9179;50.968;3.134;2023-03-23T07:47:58;18.70;99.90
18105;DHT22;9179;50.968;3.134;2023-03-23T07:50:25;19.30;99.90
18105;DHT22;9179;50.968;3.134;2023-03-23T07:52:55;19.50;99.90
18105;DHT22;9179;50.968;3.134;2023-03-23T07:55:23;19.90;99.90
18105;DHT22;9179;50.968;3.134;2023-03-23T07:57:52;19.90;99.90
18105;DHT22;9179;50.968;3.134;2023-03-23T08:00:21;20.00;99.90
18105;DHT22;9179;50.968;3.134;2023-03-23T08:02:50;19.40;99.90
18105;DHT22;9179;50.968;3.134;2023-03-23T08:05:18;18.20;99.90
18105;DHT22;9179;50.968;3.134;2023-03-23T08:07:47;18.30;99.90
18105;DHT22;9179;50.968;3.134;2023-03-23T08:10:16;19.10;99.90
18105;DHT22;9179;50.968;3.134;2023-03-23T08:12:44;19.00;99.90
18105;DHT22;9179;50.968;3.134;2023-03-23T08:15:12;18.90;99.90
18105;DHT22;9179;50.968;3.134;2023-03-23T08:17:41;19.80;99.90
18105;DHT22;9179;50.968;3.134;2023-03-23T08:20:09;20.10;99.90
18105;DHT22;9179;50.968;3.134;2023-03-23T08:22:39;20.30;99.90
18105;DHT22;9179;50.968;3.134;2023-03-23T08:25:09;20.90;99.90
18105;DHT22;9179;50.968;3.134;2023-03-23T08:27:38;20.50;99.90
18105;DHT22;9179;50.968;3.134;2023-03-23T08:30:10;20.80;99.90
18105;DHT22;9179;50.968;3.134;2023-03-23T08:32:38;21.00;99.90
18105;DHT22;9179;50.968;3.134;2023-03-23T08:35:07;20.90;99.90
18105;DHT22;9179;50.968;3.134;2023-03-23T08:37:34;20.90;99.90
18105;DHT22;9179;50.968;3.134;2023-03-23T08:40:02;21.00;99.90
18105;DHT22;9179;50.968;3.134;2023-03-23T08:42:34;20.80;99.90
18105;DHT22;9179;50.968;3.134;2023-03-23T08:45:03;21.00;99.90
18105;DHT22;9179;50.968;3.134;2023-03-23T08:47:31;20.40;99.90
18105;DHT22;9179;50.968;3.134;2023-03-23T08:49:58;21.00;99.90
18105;DHT22;9179;50.968;3.134;2023-03-23T08:52:25;21.20;99.90
18105;DHT22;9179;50.968;3.134;2023-03-23T08:54:52;21.10;99.90
18105;DHT22;9179;50.968;3.134;2023-03-23T08:57:19;20.50;99.90
18105;DHT22;9179;50.968;3.134;2023-03-23T08:59:46;20.70;99.90
18105;DHT22;9179;50.968;3.134;2023-03-23T09:02:15;20.30;99.90
18105;DHT22;9179;50.968;3.134;2023-03-23T09:04:42;20.20;99.90
18105;DHT22;9179;50.968;3.134;2023-03-23T09:07:09;21.40;99.90
18105;DHT22;9179;50.968;3.134;2023-03-23T09:09:37;21.40;99.90
18105;DHT22;9179;50.968;3.134;2023-03-23T09:12:06;21.80;99.90
18105;DHT22;9179;50.968;3.134;2023-03-23T09:14:34;22.70;99.90
18105;DHT22;9179;50.968;3.134;2023-03-23T09:17:01;22.70;99.90
18105;DHT22;9179;50.968;3.134;2023-03-23T09:19:30;22.30;99.90
18105;DHT22;9179;50.968;3.134;2023-03-23T09:21:58;21.60;99.90
18105;DHT22;9179;50.968;3.134;2023-03-23T09:24:25;21.20;99.90
18105;DHT22;9179;50.968;3.134;2023-03-23T09:26:52;20.50;99.90
18105;DHT22;9179;50.968;3.134;2023-03-23T09:29:19;19.70;99.90
18105;DHT22;9179;50.968;3.134;2023-03-23T09:31:46;19.20;99.90
18105;DHT22;9179;50.968;3.134;2023-03-23T09:34:14;20.00;99.90
18105;DHT22;9179;50.968;3.134;2023-03-23T09:36:44;20.30;99.90
18105;DHT22;9179;50.968;3.134;2023-03-23T09:39:11;20.60;99.90
18105;DHT22;9179;50.968;3.134;2023-03-23T09:41:58;20.90;99.90
18105;DHT22;9179;50.968;3.134;2023-03-23T09:44:34;20.80;99.90
18105;DHT22;9179;50.968;3.134;2023-03-23T09:47:10;20.20;99.90
18105;DHT22;9179;50.968;3.134;2023-03-23T09:49:42;20.10;99.90
18105;DHT22;9179;50.968;3.134;2023-03-23T09:52:14;19.60;99.90
18105;DHT22;9179;50.968;3.134;2023-03-23T09:54:42;19.30;99.90
18105;DHT22;9179;50.968;3.134;2023-03-23T09:57:14;18.90;99.90
18105;DHT22;9179;50.968;3.134;2023-03-23T09:59:51;18.60;99.90
18105;DHT22;9179;50.968;3.134;2023-03-23T10:02:24;18.60;99.90
18105;DHT22;9179;50.968;3.134;2023-03-23T10:04:55;18.90;99.90
18105;DHT22;9179;50.968;3.134;2023-03-23T10:07:26;20.30;99.90
18105;DHT22;9179;50.968;3.134;2023-03-23T10:09:57;19.60;99.90
18105;DHT22;9179;50.968;3.134;2023-03-23T10:12:29;19.50;99.90
18105;DHT22;9179;50.968;3.134;2023-03-23T10:15:07;21.30;99.90
18105;DHT22;9179;50.968;3.134;2023-03-23T10:17:41;21.70;99.90
18105;DHT22;9179;50.968;3.134;2023-03-23T10:20:28;21.50;99.90
18105;DHT22;9179;50.968;3.134;2023-03-23T10:23:08;22.40;99.90
18105;DHT22;9179;50.968;3.134;2023-03-23T10:25:41;23.20;99.90
18105;DHT22;9179;50.968;3.134;2023-03-23T10:28:11;22.40;99.90
18105;DHT22;9179;50.968;3.134;2023-03-23T10:30:41;20.60;99.90
18105;DHT22;9179;50.968;3.134;2023-03-23T10:33:15;19.30;99.90
18105;DHT22;9179;50.968;3.134;2023-03-23T10:35:47;18.60;99.90
18105;DHT22;9179;50.968;3.134;2023-03-23T10:38:19;19.50;99.90
18105;DHT22;9179;50.968;3.134;2023-03-23T10:40:50;19.70;99.90
18105;DHT22;9179;50.968;3.134;2023-03-23T10:43:19;19.90;99.90
18105;DHT22;9179;50.968;3.134;2023-03-23T10:45:51;19.20;99.90
18105;DHT22;9179;50.968;3.134;2023-03-23T10:48:23;18.60;99.90
18105;DHT22;9179;50.968;3.134;2023-03-23T10:50:55;19.10;99.90
18105;DHT22;9179;50.968;3.134;2023-03-23T10:53:28;19.40;99.90
18105;DHT22;9179;50.968;3.134;2023-03-23T10:55:57;19.70;99.90
18105;DHT22;9179;50.968;3.134;2023-03-23T10:58:26;19.60;99.90
18105;DHT22;9179;50.968;3.134;2023-03-23T11:00:56;19.10;99.90
18105;DHT22;9179;50.968;3.134;2023-03-23T11:03:35;17.30;99.90
18105;DHT22;9179;50.968;3.134;2023-03-23T11:06:06;15.70;99.90
18105;DHT22;9179;50.968;3.134;2023-03-23T11:08:36;14.50;99.90
18105;DHT22;9179;50.968;3.134;2023-03-23T11:11:10;14.00;99.90
18105;DHT22;9179;50.968;3.134;2023-03-23T11:13:42;14.00;99.90
18105;DHT22;9179;50.968;3.134;2023-03-23T11:16:10;14.10;99.90
18105;DHT22;9179;50.968;3.134;2023-03-23T11:18:48;14.20;99.90
18105;DHT22;9179;50.968;3.134;2023-03-23T11:21:15;13.90;99.90
18105;DHT22;9179;50.968;3.134;2023-03-23T11:23:49;13.90;99.90
18105;DHT22;9179;50.968;3.134;2023-03-23T11:26:20;15.60;99.90
18105;DHT22;9179;50.968;3.134;2023-03-23T11:28:52;17.50;99.90
18105;DHT22;9179;50.968;3.134;2023-03-23T11:31:23;19.40;99.90
18105;DHT22;9179;50.968;3.134;2023-03-23T11:33:53;19.70;99.90
18105;DHT22;9179;50.968;3.134;2023-03-23T11:36:29;19.30;99.90
18105;DHT22;9179;50.968;3.134;2023-03-23T11:38:58;18.90;99.90
18105;DHT22;9179;50.968;3.134;2023-03-23T11:41:31;18.90;99.90
18105;DHT22;9179;50.968;3.134;2023-03-23T11:44:07;18.70;99.90
18105;DHT22;9179;50.968;3.134;2023-03-23T11:46:42;18.20;99.90
18105;DHT22;9179;50.968;3.134;2023-03-23T11:49:18;18.10;99.90
18105;DHT22;9179;50.968;3.134;2023-03-23T11:51:50;18.10;99.90
18105;DHT22;9179;50.968;3.134;2023-03-23T11:54:28;18.00;99.90
18105;DHT22;9179;50.968;3.134;2023-03-23T11:56:56;19.00;99.90
18105;DHT22;9179;50.968;3.134;2023-03-23T11:59:28;19.70;99.90
18105;DHT22;9179;50.968;3.134;2023-03-23T12:02:07;19.40;99.90
18105;DHT22;9179;50.968;3.134;2023-03-23T12:04:48;18.70;99.90
18105;DHT22;9179;50.968;3.134;2023-03-23T12:07:37;18.30;99.90
18105;DHT22;9179;50.968;3.134;2023-03-23T12:10:19;19.50;99.90
18105;DHT22;9179;50.968;3.134;2023-03-23T12:12:58;20.50;99.90
18105;DHT22;9179;50.968;3.134;2023-03-23T12:15:33;20.90;99.90
18105;DHT22;9179;50.968;3.134;2023-03-23T12:18:06;21.40;99.90
18105;DHT22;9179;50.968;3.134;2023-03-23T12:20:44;21.90;99.90
18105;DHT22;9179;50.968;3.134;2023-03-23T12:23:23;21.10;99.90
18105;DHT22;9179;50.968;3.134;2023-03-23T12:31:51;21.30;99.90
18105;DHT22;9179;50.968;3.134;2023-03-23T12:34:28;21.00;99.90
18105;DHT22;9179;50.968;3.134;2023-03-23T12:37:09;21.60;99.90
18105;DHT22;9179;50.968;3.134;2023-03-23T12:39:57;21.30;99.90
18105;DHT22;9179;50.968;3.134;2023-03-23T12:42:42;20.40;99.90
18105;DHT22;9179;50.968;3.134;2023-03-23T12:45:18;19.90;99.90
18105;DHT22;9179;50.968;3.134;2023-03-23T12:47:50;19.80;99.90
18105;DHT22;9179;50.968;3.134;2023-03-23T12:50:25;19.80;99.90
18105;DHT22;9179;50.968;3.134;2023-03-23T12:52:55;20.20;99.90
18105;DHT22;9179;50.968;3.134;2023-03-23T12:55:30;21.40;99.90
18105;DHT22;9179;50.968;3.134;2023-03-23T12:58:04;22.50;99.90
18105;DHT22;9179;50.968;3.134;2023-03-23T13:00:48;22.90;99.90
18105;DHT22;9179;50.968;3.134;2023-03-23T13:03:22;22.20;99.90
18105;DHT22;9179;50.968;3.134;2023-03-23T13:05:54;21.20;99.90
18105;DHT22;9179;50.968;3.134;2023-03-23T13:08:27;21.10;99.90
18105;DHT22;9179;50.968;3.134;2023-03-23T13:10:58;21.00;99.90
18105;DHT22;9179;50.968;3.134;2023-03-23T13:13:41;20.60;99.90
18105;DHT22;9179;50.968;3.134;2023-03-23T13:16:14;21.60;99.90
18105;DHT22;9179;50.968;3.134;2023-03-23T13:18:48;24.00;99.90
18105;DHT22;9179;50.968;3.134;2023-03-23T13:21:20;25.10;99.90
18105;DHT22;9179;50.968;3.134;2023-03-23T13:23:54;26.00;99.90
18105;DHT22;9179;50.968;3.134;2023-03-23T13:26:22;26.30;99.90
18105;DHT22;9179;50.968;3.134;2023-03-23T13:28:59;26.50;99.90
18105;DHT22;9179;50.968;3.134;2023-03-23T13:31:28;27.40;99.90
18105;DHT22;9179;50.968;3.134;2023-03-23T13:34:02;27.60;99.90
18105;DHT22;9179;50.968;3.134;2023-03-23T13:36:33;27.90;99.90
18105;DHT22;9179;50.968;3.134;2023-03-23T13:39:02;28.00;99.90
18105;DHT22;9179;50.968;3.134;2023-03-23T13:41:33;27.40;99.90
18105;DHT22;9179;50.968;3.134;2023-03-23T13:44:17;28.30;99.90
18105;DHT22;9179;50.968;3.134;2023-03-23T13:46:55;29.10;99.90
18105;DHT22;9179;50.968;3.134;2023-03-23T13:49:24;27.60;99.90
18105;DHT22;9179;50.968;3.134;2023-03-23T13:52:13;26.10;99.90
18105;DHT22;9179;50.968;3.134;2023-03-23T13:54:44;23.90;99.90
18105;DHT22;9179;50.968;3.134;2023-03-23T13:57:35;22.20;99.90
18105;DHT22;9179;50.968;3.134;2023-03-23T14:00:37;21.10;99.90
18105;DHT22;9179;50.968;3.134;2023-03-23T14:03:10;21.00;99.90
18105;DHT22;9179;50.968;3.134;2023-03-23T14:05:39;22.30;99.90
18105;DHT22;9179;50.968;3.134;2023-03-23T14:08:13;23.20;99.90
18105;DHT22;9179;50.968;3.134;2023-03-23T14:10:43;23.20;99.90
18105;DHT22;9179;50.968;3.134;2023-03-23T14:13:18;22.40;99.90
18105;DHT22;9179;50.968;3.134;2023-03-23T14:15:58;21.60;99.90
18105;DHT22;9179;50.968;3.134;2023-03-23T14:18:30;21.10;99.90
18105;DHT22;9179;50.968;3.134;2023-03-23T14:20:58;20.60;99.90
18105;DHT22;9179;50.968;3.134;2023-03-23T14:23:26;20.50;99.90
18105;DHT22;9179;50.968;3.134;2023-03-23T14:25:58;20.30;99.90
18105;DHT22;9179;50.968;3.134;2023-03-23T14:28:31;20.10;99.90
18105;DHT22;9179;50.968;3.134;2023-03-23T14:31:00;19.60;99.90
18105;DHT22;9179;50.968;3.134;2023-03-23T14:33:27;19.60;99.90
18105;DHT22;9179;50.968;3.134;2023-03-23T14:35:57;19.90;99.90
18105;DHT22;9179;50.968;3.134;2023-03-23T14:38:25;20.40;99.90
18105;DHT22;9179;50.968;3.134;2023-03-23T14:41:00;21.10;99.90
18105;DHT22;9179;50.968;3.134;2023-03-23T14:43:29;21.60;99.90
18105;DHT22;9179;50.968;3.134;2023-03-23T14:46:00;22.00;99.90
18105;DHT22;9179;50.968;3.134;2023-03-23T14:48:28;21.80;99.90
18105;DHT22;9179;50.968;3.134;2023-03-23T14:50:58;21.50;99.90
18105;DHT22;9179;50.968;3.134;2023-03-23T14:53:31;20.90;99.90
18105;DHT22;9179;50.968;3.134;2023-03-23T14:56:01;20.40;99.90
18105;DHT22;9179;50.968;3.134;2023-03-23T14:58:30;19.70;99.90
18105;DHT22;9179;50.968;3.134;2023-03-23T15:01:03;19.10;99.90
18105;DHT22;9179;50.968;3.134;2023-03-23T15:03:34;18.90;99.90
18105;DHT22;9179;50.968;3.134;2023-03-23T15:06:05;18.60;99.90
18105;DHT22;9179;50.968;3.134;2023-03-23T15:08:34;19.10;99.90
18105;DHT22;9179;50.968;3.134;2023-03-23T15:11:06;19.10;99.90
18105;DHT22;9179;50.968;3.134;2023-03-23T15:13:35;19.30;99.90
18105;DHT22;9179;50.968;3.134;2023-03-23T15:16:07;19.40;99.90
18105;DHT22;9179;50.968;3.134;2023-03-23T15:18:39;19.80;99.90
18105;DHT22;9179;50.968;3.134;2023-03-23T15:21:12;20.10;99.90
18105;DHT22;9179;50.968;3.134;2023-03-23T15:23:45;20.70;99.90
18105;DHT22;9179;50.968;3.134;2023-03-23T15:26:29;22.50;99.90
18105;DHT22;9179;50.968;3.134;2023-03-23T15:29:13;23.90;99.90
18105;DHT22;9179;50.968;3.134;2023-03-23T15:31:45;22.80;99.90
18105;DHT22;9179;50.968;3.134;2023-03-23T15:34:24;21.60;99.90
18105;DHT22;9179;50.968;3.134;2023-03-23T15:36:57;20.80;99.90
18105;DHT22;9179;50.968;3.134;2023-03-23T15:39:25;19.90;99.90
18105;DHT22;9179;50.968;3.134;2023-03-23T15:41:53;19.00;99.90
18105;DHT22;9179;50.968;3.134;2023-03-23T15:44:24;18.50;99.90
18105;DHT22;9179;50.968;3.134;2023-03-23T15:47:02;17.90;99.90
18105;DHT22;9179;50.968;3.134;2023-03-23T15:49:30;17.60;99.90
18105;DHT22;9179;50.968;3.134;2023-03-23T15:51:57;17.60;99.90
18105;DHT22;9179;50.968;3.134;2023-03-23T15:54:29;18.00;99.90
18105;DHT22;9179;50.968;3.134;2023-03-23T15:56:57;18.60;99.90
18105;DHT22;9179;50.968;3.134;2023-03-23T15:59:23;18.90;99.90
18105;DHT22;9179;50.968;3.134;2023-03-23T16:01:51;18.80;99.90
18105;DHT22;9179;50.968;3.134;2023-03-23T16:04:19;18.50;99.90
18105;DHT22;9179;50.968;3.134;2023-03-23T16:06:46;18.30;99.90
18105;DHT22;9179;50.968;3.134;2023-03-23T16:09:15;17.90;99.90
18105;DHT22;9179;50.968;3.134;2023-03-23T16:11:43;17.60;99.90
18105;DHT22;9179;50.968;3.134;2023-03-23T16:14:10;17.40;99.90
18105;DHT22;9179;50.968;3.134;2023-03-23T16:16:39;17.60;99.90